Terminal Aerodrome Forecast
Issued by NWS

Home | Current Version | Previous Version | Text Only | Print | Product List | Glossary On
Versions: 1 2 3 4 5 6 7 8 9 10 11 12 13 14 15 16 17 18 19 20 21 22 23 24 25 26 27 28 29 30 31 32 33 34 35 36 37 38 39 40 41 42 43
000
FTUS45 KTWC 040520
TAFOLS
TAF
KOLS 040520Z 0406/0506 VRB03KT 5SM BR SCT110 SCT200
      TEMPO 0406/0410 2SM BR BKN001
     FM041000 VRB03KT 5SM BR SCT200
     FM041400 VRB03KT P6SM SCT200
     FM042100 19007KT P6SM VCSH SCT060 BKN110
     FM050200 12004KT P6SM BKN110 BKN200=

USA.gov is the U.S. government's official web portal to all federal, state and local government web resources and services.